Terminal Aerodrome Forecast
Issued by NWS Aberdeen, SD

Home | Current Version | Previous Version | Text Only | Print | Product List | Glossary On
Versions: 1 2 3 4 5 6 7 8 9 10 11 12 13 14 15 16 17 18 19 20 21 22 23 24 25 26 27 28 29 30 31 32 33 34 35 36 37 38 39
000
FTAK31 PAFA 301128
TAFABR
TAF
PABR 301128Z 3012/3112 03016KT 1 1/2SM -SN BR SCT004 OVC015
      TEMPO 3012/3015 1/2SM FZRASN FZFG BKN004 OVC007
     FM301500 03012KT 1 1/2SM -SN BR OVC004
     FM302100 27010KT 3SM -SN BR BKN007 OVC015=

USA.gov is the U.S. government's official web portal to all federal, state and local government web resources and services.